sensor_id;sensor_type;location;lat;lon;timestamp;P1;durP1;ratioP1;P2;durP2;ratioP2
13731;SDS011;6937;56.096;12.664;2022-09-02T00:00:42;1.67;;;0.60;;
13731;SDS011;6937;56.096;12.664;2022-09-02T00:03:09;1.60;;;0.70;;
13731;SDS011;6937;56.096;12.664;2022-09-02T00:05:35;0.65;;;0.65;;
13731;SDS011;6937;56.096;12.664;2022-09-02T00:08:01;1.35;;;0.80;;
13731;SDS011;6937;56.096;12.664;2022-09-02T00:10:27;0.93;;;0.73;;
13731;SDS011;6937;56.096;12.664;2022-09-02T00:12:53;0.70;;;0.68;;
13731;SDS011;6937;56.096;12.664;2022-09-02T00:15:18;0.75;;;0.70;;
13731;SDS011;6937;56.096;12.664;2022-09-02T00:17:44;1.50;;;0.82;;
13731;SDS011;6937;56.096;12.664;2022-09-02T00:20:09;1.08;;;0.73;;
13731;SDS011;6937;56.096;12.664;2022-09-02T00:22:35;0.73;;;0.60;;
13731;SDS011;6937;56.096;12.664;2022-09-02T00:25:00;1.05;;;0.82;;
13731;SDS011;6937;56.096;12.664;2022-09-02T00:27:25;0.95;;;0.85;;
13731;SDS011;6937;56.096;12.664;2022-09-02T00:29:51;1.58;;;0.70;;
13731;SDS011;6937;56.096;12.664;2022-09-02T00:32:17;2.67;;;0.90;;
13731;SDS011;6937;56.096;12.664;2022-09-02T00:34:43;1.10;;;0.70;;
13731;SDS011;6937;56.096;12.664;2022-09-02T00:37:08;2.15;;;0.70;;
13731;SDS011;6937;56.096;12.664;2022-09-02T00:39:34;1.05;;;0.50;;
13731;SDS011;6937;56.096;12.664;2022-09-02T00:41:59;0.57;;;0.57;;
13731;SDS011;6937;56.096;12.664;2022-09-02T00:44:25;0.70;;;0.70;;
13731;SDS011;6937;56.096;12.664;2022-09-02T00:46:51;0.82;;;0.70;;
13731;SDS011;6937;56.096;12.664;2022-09-02T00:49:18;1.02;;;0.93;;
13731;SDS011;6937;56.096;12.664;2022-09-02T00:54:31;1.65;;;0.82;;
13731;SDS011;6937;56.096;12.664;2022-09-02T00:57:00;1.10;;;1.10;;
13731;SDS011;6937;56.096;12.664;2022-09-02T01:02:22;0.70;;;0.70;;
13731;SDS011;6937;56.096;12.664;2022-09-02T01:04:49;0.80;;;0.80;;
13731;SDS011;6937;56.096;12.664;2022-09-02T01:07:15;0.73;;;0.73;;
13731;SDS011;6937;56.096;12.664;2022-09-02T01:09:41;0.68;;;0.68;;
13731;SDS011;6937;56.096;12.664;2022-09-02T01:12:06;1.05;;;0.63;;
13731;SDS011;6937;56.096;12.664;2022-09-02T01:14:33;0.80;;;0.60;;
13731;SDS011;6937;56.096;12.664;2022-09-02T01:16:59;0.73;;;0.57;;
13731;SDS011;6937;56.096;12.664;2022-09-02T01:19:27;0.70;;;0.70;;
13731;SDS011;6937;56.096;12.664;2022-09-02T01:21:56;0.65;;;0.63;;
13731;SDS011;6937;56.096;12.664;2022-09-02T01:24:24;0.77;;;0.60;;
13731;SDS011;6937;56.096;12.664;2022-09-02T01:26:53;0.70;;;0.70;;
13731;SDS011;6937;56.096;12.664;2022-09-02T01:29:20;0.60;;;0.60;;
13731;SDS011;6937;56.096;12.664;2022-09-02T01:31:46;0.90;;;0.68;;
13731;SDS011;6937;56.096;12.664;2022-09-02T01:34:12;1.65;;;0.70;;
13731;SDS011;6937;56.096;12.664;2022-09-02T01:36:38;1.38;;;0.80;;
13731;SDS011;6937;56.096;12.664;2022-09-02T01:39:06;1.20;;;1.00;;
13731;SDS011;6937;56.096;12.664;2022-09-02T01:41:33;0.90;;;0.80;;
13731;SDS011;6937;56.096;12.664;2022-09-02T01:43:59;0.98;;;0.80;;
13731;SDS011;6937;56.096;12.664;2022-09-02T01:46:24;0.70;;;0.70;;
13731;SDS011;6937;56.096;12.664;2022-09-02T01:48:50;0.85;;;0.80;;
13731;SDS011;6937;56.096;12.664;2022-09-02T01:51:17;0.85;;;0.80;;
13731;SDS011;6937;56.096;12.664;2022-09-02T01:53:44;0.93;;;0.70;;
13731;SDS011;6937;56.096;12.664;2022-09-02T01:56:11;1.10;;;1.00;;
13731;SDS011;6937;56.096;12.664;2022-09-02T01:58:36;1.00;;;0.90;;
13731;SDS011;6937;56.096;12.664;2022-09-02T02:01:02;1.35;;;0.60;;
13731;SDS011;6937;56.096;12.664;2022-09-02T02:03:28;2.05;;;0.68;;
13731;SDS011;6937;56.096;12.664;2022-09-02T02:05:53;2.35;;;0.73;;
13731;SDS011;6937;56.096;12.664;2022-09-02T02:08:19;0.70;;;0.60;;
13731;SDS011;6937;56.096;12.664;2022-09-02T02:10:45;3.42;;;0.90;;
13731;SDS011;6937;56.096;12.664;2022-09-02T02:13:11;1.63;;;0.75;;
13731;SDS011;6937;56.096;12.664;2022-09-02T02:15:37;0.50;;;0.50;;
13731;SDS011;6937;56.096;12.664;2022-09-02T02:18:03;0.70;;;0.60;;
13731;SDS011;6937;56.096;12.664;2022-09-02T02:20:29;0.70;;;0.68;;
13731;SDS011;6937;56.096;12.664;2022-09-02T02:22:54;1.00;;;0.80;;
13731;SDS011;6937;56.096;12.664;2022-09-02T02:25:20;0.90;;;0.55;;
13731;SDS011;6937;56.096;12.664;2022-09-02T02:27:45;1.10;;;0.60;;
13731;SDS011;6937;56.096;12.664;2022-09-02T02:30:12;0.70;;;0.70;;
13731;SDS011;6937;56.096;12.664;2022-09-02T02:32:39;0.50;;;0.50;;
13731;SDS011;6937;56.096;12.664;2022-09-02T02:35:05;1.15;;;0.60;;
13731;SDS011;6937;56.096;12.664;2022-09-02T02:37:30;0.85;;;0.75;;
13731;SDS011;6937;56.096;12.664;2022-09-02T02:39:56;1.00;;;1.00;;
13731;SDS011;6937;56.096;12.664;2022-09-02T02:42:21;1.15;;;0.80;;
13731;SDS011;6937;56.096;12.664;2022-09-02T02:44:47;0.70;;;0.70;;
13731;SDS011;6937;56.096;12.664;2022-09-02T02:47:13;1.08;;;0.70;;
13731;SDS011;6937;56.096;12.664;2022-09-02T02:49:39;1.08;;;0.93;;
13731;SDS011;6937;56.096;12.664;2022-09-02T02:52:06;1.00;;;0.90;;
13731;SDS011;6937;56.096;12.664;2022-09-02T02:54:32;1.88;;;1.05;;
13731;SDS011;6937;56.096;12.664;2022-09-02T02:56:57;0.73;;;0.70;;
13731;SDS011;6937;56.096;12.664;2022-09-02T02:59:23;0.80;;;0.80;;
13731;SDS011;6937;56.096;12.664;2022-09-02T03:01:50;0.98;;;0.88;;
13731;SDS011;6937;56.096;12.664;2022-09-02T03:04:15;1.02;;;1.00;;
13731;SDS011;6937;56.096;12.664;2022-09-02T03:06:41;1.00;;;0.98;;
13731;SDS011;6937;56.096;12.664;2022-09-02T03:09:06;0.80;;;0.80;;
13731;SDS011;6937;56.096;12.664;2022-09-02T03:11:31;1.88;;;0.90;;
13731;SDS011;6937;56.096;12.664;2022-09-02T03:13:57;1.92;;;0.90;;
13731;SDS011;6937;56.096;12.664;2022-09-02T03:16:23;0.80;;;0.80;;
13731;SDS011;6937;56.096;12.664;2022-09-02T03:18:48;1.27;;;0.80;;
13731;SDS011;6937;56.096;12.664;2022-09-02T03:21:15;2.70;;;0.85;;
13731;SDS011;6937;56.096;12.664;2022-09-02T03:23:42;0.93;;;0.93;;
13731;SDS011;6937;56.096;12.664;2022-09-02T03:26:12;1.98;;;0.93;;
13731;SDS011;6937;56.096;12.664;2022-09-02T03:28:40;1.17;;;0.98;;
13731;SDS011;6937;56.096;12.664;2022-09-02T03:31:06;1.25;;;0.85;;
13731;SDS011;6937;56.096;12.664;2022-09-02T03:33:32;0.95;;;0.88;;
13731;SDS011;6937;56.096;12.664;2022-09-02T03:35:58;1.27;;;0.93;;
13731;SDS011;6937;56.096;12.664;2022-09-02T03:38:23;2.13;;;1.00;;
13731;SDS011;6937;56.096;12.664;2022-09-02T03:40:50;1.25;;;0.88;;
13731;SDS011;6937;56.096;12.664;2022-09-02T03:43:15;1.33;;;0.90;;
13731;SDS011;6937;56.096;12.664;2022-09-02T03:45:41;0.70;;;0.70;;
13731;SDS011;6937;56.096;12.664;2022-09-02T03:48:06;0.68;;;0.68;;
13731;SDS011;6937;56.096;12.664;2022-09-02T03:50:34;1.27;;;1.00;;
13731;SDS011;6937;56.096;12.664;2022-09-02T03:53:04;1.13;;;0.80;;
13731;SDS011;6937;56.096;12.664;2022-09-02T03:55:30;1.10;;;0.98;;
13731;SDS011;6937;56.096;12.664;2022-09-02T03:57:56;0.73;;;0.70;;
13731;SDS011;6937;56.096;12.664;2022-09-02T04:00:22;0.95;;;0.90;;
13731;SDS011;6937;56.096;12.664;2022-09-02T04:02:49;1.02;;;0.60;;
13731;SDS011;6937;56.096;12.664;2022-09-02T04:05:15;3.40;;;1.00;;
13731;SDS011;6937;56.096;12.664;2022-09-02T04:07:41;1.27;;;1.00;;
13731;SDS011;6937;56.096;12.664;2022-09-02T04:10:07;0.93;;;0.73;;
13731;SDS011;6937;56.096;12.664;2022-09-02T04:12:33;1.92;;;1.08;;
13731;SDS011;6937;56.096;12.664;2022-09-02T04:15:04;0.80;;;0.80;;
13731;SDS011;6937;56.096;12.664;2022-09-02T04:17:34;0.80;;;0.80;;
13731;SDS011;6937;56.096;12.664;2022-09-02T04:19:59;0.70;;;0.70;;
13731;SDS011;6937;56.096;12.664;2022-09-02T04:22:25;1.45;;;1.20;;
13731;SDS011;6937;56.096;12.664;2022-09-02T04:24:50;1.05;;;0.85;;
13731;SDS011;6937;56.096;12.664;2022-09-02T04:27:16;0.57;;;0.57;;
13731;SDS011;6937;56.096;12.664;2022-09-02T04:29:41;1.10;;;1.00;;
13731;SDS011;6937;56.096;12.664;2022-09-02T04:32:07;1.17;;;0.80;;
13731;SDS011;6937;56.096;12.664;2022-09-02T04:34:32;1.13;;;0.77;;
13731;SDS011;6937;56.096;12.664;2022-09-02T04:36:57;1.08;;;0.90;;
13731;SDS011;6937;56.096;12.664;2022-09-02T04:39:23;0.80;;;0.80;;
13731;SDS011;6937;56.096;12.664;2022-09-02T04:41:48;0.77;;;0.70;;
13731;SDS011;6937;56.096;12.664;2022-09-02T04:44:14;1.17;;;0.70;;
13731;SDS011;6937;56.096;12.664;2022-09-02T04:46:40;0.73;;;0.73;;
13731;SDS011;6937;56.096;12.664;2022-09-02T04:49:05;0.77;;;0.77;;
13731;SDS011;6937;56.096;12.664;2022-09-02T04:51:30;1.13;;;0.70;;
13731;SDS011;6937;56.096;12.664;2022-09-02T04:53:56;0.93;;;0.90;;
13731;SDS011;6937;56.096;12.664;2022-09-02T04:56:23;1.55;;;0.90;;
13731;SDS011;6937;56.096;12.664;2022-09-02T04:58:51;2.25;;;1.00;;
13731;SDS011;6937;56.096;12.664;2022-09-02T05:01:18;1.92;;;1.25;;
13731;SDS011;6937;56.096;12.664;2022-09-02T05:03:46;1.52;;;0.80;;
13731;SDS011;6937;56.096;12.664;2022-09-02T05:06:13;1.40;;;0.70;;
13731;SDS011;6937;56.096;12.664;2022-09-02T05:08:42;3.15;;;0.90;;
13731;SDS011;6937;56.096;12.664;2022-09-02T05:11:12;2.00;;;0.73;;
13731;SDS011;6937;56.096;12.664;2022-09-02T05:13:41;3.63;;;0.70;;
13731;SDS011;6937;56.096;12.664;2022-09-02T05:16:07;2.05;;;0.80;;
13731;SDS011;6937;56.096;12.664;2022-09-02T05:18:32;2.42;;;0.90;;
13731;SDS011;6937;56.096;12.664;2022-09-02T05:20:58;5.65;;;1.17;;
13731;SDS011;6937;56.096;12.664;2022-09-02T05:23:23;4.05;;;1.50;;
13731;SDS011;6937;56.096;12.664;2022-09-02T05:25:49;10.90;;;1.75;;
13731;SDS011;6937;56.096;12.664;2022-09-02T05:28:15;7.00;;;1.35;;
13731;SDS011;6937;56.096;12.664;2022-09-02T05:30:41;1.88;;;1.02;;
13731;SDS011;6937;56.096;12.664;2022-09-02T05:33:07;2.42;;;1.25;;
13731;SDS011;6937;56.096;12.664;2022-09-02T05:35:39;1.85;;;0.93;;
13731;SDS011;6937;56.096;12.664;2022-09-02T05:38:06;2.75;;;1.00;;
13731;SDS011;6937;56.096;12.664;2022-09-02T05:40:32;2.08;;;1.08;;
13731;SDS011;6937;56.096;12.664;2022-09-02T05:42:58;1.30;;;1.00;;
13731;SDS011;6937;56.096;12.664;2022-09-02T05:45:23;1.60;;;1.25;;
13731;SDS011;6937;56.096;12.664;2022-09-02T05:47:49;1.30;;;1.20;;
13731;SDS011;6937;56.096;12.664;2022-09-02T05:50:14;3.20;;;1.90;;
13731;SDS011;6937;56.096;12.664;2022-09-02T05:52:40;1.48;;;1.38;;
13731;SDS011;6937;56.096;12.664;2022-09-02T05:55:06;1.42;;;1.33;;
13731;SDS011;6937;56.096;12.664;2022-09-02T05:57:31;1.50;;;1.33;;
13731;SDS011;6937;56.096;12.664;2022-09-02T05:59:57;1.20;;;1.10;;
13731;SDS011;6937;56.096;12.664;2022-09-02T06:02:23;2.33;;;1.30;;
13731;SDS011;6937;56.096;12.664;2022-09-02T06:04:50;2.70;;;1.17;;
13731;SDS011;6937;56.096;12.664;2022-09-02T06:07:17;2.55;;;1.25;;
13731;SDS011;6937;56.096;12.664;2022-09-02T06:09:45;1.65;;;1.40;;
13731;SDS011;6937;56.096;12.664;2022-09-02T06:12:10;1.42;;;1.20;;
13731;SDS011;6937;56.096;12.664;2022-09-02T06:14:37;1.75;;;1.10;;
13731;SDS011;6937;56.096;12.664;2022-09-02T06:17:02;1.35;;;1.25;;
13731;SDS011;6937;56.096;12.664;2022-09-02T06:19:29;2.80;;;1.40;;
13731;SDS011;6937;56.096;12.664;2022-09-02T06:21:56;1.30;;;1.10;;
13731;SDS011;6937;56.096;12.664;2022-09-02T06:24:23;1.30;;;1.20;;
13731;SDS011;6937;56.096;12.664;2022-09-02T06:26:50;2.40;;;1.20;;
13731;SDS011;6937;56.096;12.664;2022-09-02T06:29:17;1.35;;;1.25;;
13731;SDS011;6937;56.096;12.664;2022-09-02T06:31:45;2.38;;;1.10;;
13731;SDS011;6937;56.096;12.664;2022-09-02T06:34:12;2.92;;;1.10;;
13731;SDS011;6937;56.096;12.664;2022-09-02T06:36:39;1.27;;;1.00;;
13731;SDS011;6937;56.096;12.664;2022-09-02T06:39:08;1.55;;;1.20;;
13731;SDS011;6937;56.096;12.664;2022-09-02T06:41:36;0.90;;;0.90;;
13731;SDS011;6937;56.096;12.664;2022-09-02T06:44:04;2.63;;;1.00;;
13731;SDS011;6937;56.096;12.664;2022-09-02T06:46:31;1.58;;;0.85;;
13731;SDS011;6937;56.096;12.664;2022-09-02T06:48:59;2.67;;;1.00;;
13731;SDS011;6937;56.096;12.664;2022-09-02T06:51:34;4.40;;;1.50;;
13731;SDS011;6937;56.096;12.664;2022-09-02T06:54:04;1.00;;;0.90;;
13731;SDS011;6937;56.096;12.664;2022-09-02T06:56:32;2.20;;;1.08;;
13731;SDS011;6937;56.096;12.664;2022-09-02T06:58:57;1.00;;;1.00;;
13731;SDS011;6937;56.096;12.664;2022-09-02T07:01:25;1.63;;;0.80;;
13731;SDS011;6937;56.096;12.664;2022-09-02T07:03:52;1.08;;;0.90;;
13731;SDS011;6937;56.096;12.664;2022-09-02T07:06:38;0.70;;;0.70;;
13731;SDS011;6937;56.096;12.664;2022-09-02T07:09:07;1.08;;;0.90;;
13731;SDS011;6937;56.096;12.664;2022-09-02T07:11:34;1.48;;;0.80;;
13731;SDS011;6937;56.096;12.664;2022-09-02T07:14:00;1.58;;;1.05;;
13731;SDS011;6937;56.096;12.664;2022-09-02T07:16:30;1.23;;;1.00;;
13731;SDS011;6937;56.096;12.664;2022-09-02T07:18:58;1.00;;;0.90;;
13731;SDS011;6937;56.096;12.664;2022-09-02T07:21:25;0.82;;;0.82;;
13731;SDS011;6937;56.096;12.664;2022-09-02T07:23:52;1.27;;;0.90;;
13731;SDS011;6937;56.096;12.664;2022-09-02T07:26:18;2.20;;;0.80;;
13731;SDS011;6937;56.096;12.664;2022-09-02T07:28:43;2.85;;;1.00;;
13731;SDS011;6937;56.096;12.664;2022-09-02T07:31:09;1.05;;;0.80;;
13731;SDS011;6937;56.096;12.664;2022-09-02T07:33:35;0.95;;;0.90;;
13731;SDS011;6937;56.096;12.664;2022-09-02T07:36:02;1.08;;;0.80;;
13731;SDS011;6937;56.096;12.664;2022-09-02T07:38:29;0.63;;;0.60;;
13731;SDS011;6937;56.096;12.664;2022-09-02T07:40:55;0.60;;;0.60;;
13731;SDS011;6937;56.096;12.664;2022-09-02T07:43:21;0.60;;;0.60;;
13731;SDS011;6937;56.096;12.664;2022-09-02T07:45:46;2.50;;;0.70;;
13731;SDS011;6937;56.096;12.664;2022-09-02T07:48:14;1.75;;;0.85;;
13731;SDS011;6937;56.096;12.664;2022-09-02T07:50:40;0.75;;;0.60;;
13731;SDS011;6937;56.096;12.664;2022-09-02T07:53:06;0.60;;;0.60;;
13731;SDS011;6937;56.096;12.664;2022-09-02T07:55:32;0.90;;;0.60;;
13731;SDS011;6937;56.096;12.664;2022-09-02T07:57:59;0.90;;;0.60;;
13731;SDS011;6937;56.096;12.664;2022-09-02T08:00:25;1.52;;;0.73;;
13731;SDS011;6937;56.096;12.664;2022-09-02T08:02:51;1.33;;;0.73;;
13731;SDS011;6937;56.096;12.664;2022-09-02T08:05:17;1.80;;;0.90;;
13731;SDS011;6937;56.096;12.664;2022-09-02T08:07:43;1.92;;;0.82;;
13731;SDS011;6937;56.096;12.664;2022-09-02T08:10:08;1.52;;;0.88;;
13731;SDS011;6937;56.096;12.664;2022-09-02T08:12:37;0.85;;;0.70;;
13731;SDS011;6937;56.096;12.664;2022-09-02T08:15:04;2.03;;;0.80;;
13731;SDS011;6937;56.096;12.664;2022-09-02T08:17:30;1.30;;;0.82;;
13731;SDS011;6937;56.096;12.664;2022-09-02T08:19:55;2.20;;;0.75;;
13731;SDS011;6937;56.096;12.664;2022-09-02T08:22:22;1.83;;;0.90;;
13731;SDS011;6937;56.096;12.664;2022-09-02T08:24:48;1.25;;;0.47;;
13731;SDS011;6937;56.096;12.664;2022-09-02T08:27:13;0.75;;;0.75;;
13731;SDS011;6937;56.096;12.664;2022-09-02T08:29:39;0.73;;;0.52;;
13731;SDS011;6937;56.096;12.664;2022-09-02T08:32:05;0.93;;;0.60;;
13731;SDS011;6937;56.096;12.664;2022-09-02T08:34:30;1.42;;;0.73;;
13731;SDS011;6937;56.096;12.664;2022-09-02T08:36:56;0.88;;;0.80;;
13731;SDS011;6937;56.096;12.664;2022-09-02T08:39:22;1.25;;;0.68;;
13731;SDS011;6937;56.096;12.664;2022-09-02T08:42:12;1.50;;;0.80;;
13731;SDS011;6937;56.096;12.664;2022-09-02T08:44:41;0.68;;;0.60;;
13731;SDS011;6937;56.096;12.664;2022-09-02T08:47:12;0.60;;;0.60;;
13731;SDS011;6937;56.096;12.664;2022-09-02T08:49:44;0.82;;;0.70;;
13731;SDS011;6937;56.096;12.664;2022-09-02T08:52:19;0.65;;;0.65;;
13731;SDS011;6937;56.096;12.664;2022-09-02T08:54:53;0.75;;;0.70;;
13731;SDS011;6937;56.096;12.664;2022-09-02T08:57:20;1.45;;;0.75;;
13731;SDS011;6937;56.096;12.664;2022-09-02T08:59:52;0.60;;;0.60;;
13731;SDS011;6937;56.096;12.664;2022-09-02T09:13:37;1.17;;;0.73;;
13731;SDS011;6937;56.096;12.664;2022-09-02T09:21:29;0.60;;;0.60;;
13731;SDS011;6937;56.096;12.664;2022-09-02T09:23:55;1.25;;;0.68;;
13731;SDS011;6937;56.096;12.664;2022-09-02T09:26:27;0.60;;;0.60;;
13731;SDS011;6937;56.096;12.664;2022-09-02T09:28:54;0.95;;;0.63;;
13731;SDS011;6937;56.096;12.664;2022-09-02T09:31:23;2.92;;;0.70;;
13731;SDS011;6937;56.096;12.664;2022-09-02T09:34:00;0.73;;;0.50;;
13731;SDS011;6937;56.096;12.664;2022-09-02T09:41:55;0.75;;;0.60;;
13731;SDS011;6937;56.096;12.664;2022-09-02T09:44:44;1.25;;;0.80;;
13731;SDS011;6937;56.096;12.664;2022-09-02T09:47:19;1.70;;;0.95;;
13731;SDS011;6937;56.096;12.664;2022-09-02T09:49:49;0.50;;;0.50;;
13731;SDS011;6937;56.096;12.664;2022-09-02T09:52:34;1.77;;;0.70;;
13731;SDS011;6937;56.096;12.664;2022-09-02T09:55:06;5.95;;;1.10;;
13731;SDS011;6937;56.096;12.664;2022-09-02T09:57:33;5.90;;;1.00;;
13731;SDS011;6937;56.096;12.664;2022-09-02T09:59:59;15.23;;;2.25;;
13731;SDS011;6937;56.096;12.664;2022-09-02T10:02:26;0.65;;;0.65;;
13731;SDS011;6937;56.096;12.664;2022-09-02T10:04:53;0.75;;;0.50;;
13731;SDS011;6937;56.096;12.664;2022-09-02T10:07:40;1.23;;;0.50;;
13731;SDS011;6937;56.096;12.664;2022-09-02T10:10:08;1.65;;;0.43;;
13731;SDS011;6937;56.096;12.664;2022-09-02T10:12:40;1.00;;;0.45;;
13731;SDS011;6937;56.096;12.664;2022-09-02T10:15:05;0.85;;;0.65;;
13731;SDS011;6937;56.096;12.664;2022-09-02T10:31:44;1.48;;;0.60;;
13731;SDS011;6937;56.096;12.664;2022-09-02T10:42:22;0.55;;;0.50;;
13731;SDS011;6937;56.096;12.664;2022-09-02T10:47:39;1.30;;;0.60;;
13731;SDS011;6937;56.096;12.664;2022-09-02T10:55:42;0.50;;;0.50;;
13731;SDS011;6937;56.096;12.664;2022-09-02T11:00:59;2.63;;;0.52;;
13731;SDS011;6937;56.096;12.664;2022-09-02T11:03:32;0.60;;;0.60;;
13731;SDS011;6937;56.096;12.664;2022-09-02T11:06:09;0.50;;;0.50;;
13731;SDS011;6937;56.096;12.664;2022-09-02T11:08:41;0.75;;;0.50;;
13731;SDS011;6937;56.096;12.664;2022-09-02T11:11:12;0.50;;;0.50;;
13731;SDS011;6937;56.096;12.664;2022-09-02T11:16:43;0.52;;;0.50;;
13731;SDS011;6937;56.096;12.664;2022-09-02T11:19:19;0.70;;;0.60;;
13731;SDS011;6937;56.096;12.664;2022-09-02T11:21:51;0.50;;;0.50;;
13731;SDS011;6937;56.096;12.664;2022-09-02T11:24:43;0.68;;;0.60;;
13731;SDS011;6937;56.096;12.664;2022-09-02T11:35:28;0.65;;;0.60;;
13731;SDS011;6937;56.096;12.664;2022-09-02T11:38:04;0.50;;;0.50;;
13731;SDS011;6937;56.096;12.664;2022-09-02T11:43:32;1.17;;;0.65;;
13731;SDS011;6937;56.096;12.664;2022-09-02T11:54:11;0.40;;;0.40;;
13731;SDS011;6937;56.096;12.664;2022-09-02T11:56:44;0.60;;;0.60;;
13731;SDS011;6937;56.096;12.664;2022-09-02T11:59:19;1.15;;;0.60;;
13731;SDS011;6937;56.096;12.664;2022-09-02T12:01:48;0.57;;;0.57;;
13731;SDS011;6937;56.096;12.664;2022-09-02T12:09:46;0.50;;;0.50;;
13731;SDS011;6937;56.096;12.664;2022-09-02T12:15:01;0.57;;;0.57;;
13731;SDS011;6937;56.096;12.664;2022-09-02T12:17:41;0.52;;;0.50;;
13731;SDS011;6937;56.096;12.664;2022-09-02T12:20:11;0.95;;;0.50;;
13731;SDS011;6937;56.096;12.664;2022-09-02T12:23:08;0.50;;;0.50;;
13731;SDS011;6937;56.096;12.664;2022-09-02T12:25:58;0.93;;;0.50;;
13731;SDS011;6937;56.096;12.664;2022-09-02T12:28:27;1.35;;;0.73;;
13731;SDS011;6937;56.096;12.664;2022-09-02T12:33:33;0.70;;;0.70;;
13731;SDS011;6937;56.096;12.664;2022-09-02T12:36:00;0.95;;;0.60;;
13731;SDS011;6937;56.096;12.664;2022-09-02T12:38:38;1.50;;;0.50;;
13731;SDS011;6937;56.096;12.664;2022-09-02T12:43:31;1.02;;;0.50;;
13731;SDS011;6937;56.096;12.664;2022-09-02T12:46:11;1.50;;;0.50;;
13731;SDS011;6937;56.096;12.664;2022-09-02T12:54:40;2.22;;;0.50;;
13731;SDS011;6937;56.096;12.664;2022-09-02T12:57:11;0.50;;;0.50;;
13731;SDS011;6937;56.096;12.664;2022-09-02T12:59:40;0.50;;;0.50;;
13731;SDS011;6937;56.096;12.664;2022-09-02T13:24:20;1.15;;;0.60;;
13731;SDS011;6937;56.096;12.664;2022-09-02T13:32:30;0.80;;;0.80;;
13731;SDS011;6937;56.096;12.664;2022-09-02T13:35:00;0.65;;;0.40;;
13731;SDS011;6937;56.096;12.664;2022-09-02T13:40:26;0.50;;;0.50;;
13731;SDS011;6937;56.096;12.664;2022-09-02T13:43:01;1.77;;;0.60;;
13731;SDS011;6937;56.096;12.664;2022-09-02T13:45:29;0.70;;;0.40;;
13731;SDS011;6937;56.096;12.664;2022-09-02T13:47:59;0.50;;;0.50;;
13731;SDS011;6937;56.096;12.664;2022-09-02T13:50:29;0.60;;;0.60;;
13731;SDS011;6937;56.096;12.664;2022-09-02T13:53:00;0.80;;;0.47;;
13731;SDS011;6937;56.096;12.664;2022-09-02T13:55:27;1.15;;;0.60;;
13731;SDS011;6937;56.096;12.664;2022-09-02T13:57:57;0.52;;;0.52;;
13731;SDS011;6937;56.096;12.664;2022-09-02T14:00:38;1.50;;;0.47;;
13731;SDS011;6937;56.096;12.664;2022-09-02T14:03:06;1.67;;;0.57;;
13731;SDS011;6937;56.096;12.664;2022-09-02T14:05:42;0.57;;;0.40;;
13731;SDS011;6937;56.096;12.664;2022-09-02T14:08:12;1.25;;;0.60;;
13731;SDS011;6937;56.096;12.664;2022-09-02T14:10:39;1.50;;;0.70;;
13731;SDS011;6937;56.096;12.664;2022-09-02T14:13:07;0.45;;;0.45;;
13731;SDS011;6937;56.096;12.664;2022-09-02T14:15:34;1.58;;;0.60;;
13731;SDS011;6937;56.096;12.664;2022-09-02T14:18:16;0.38;;;0.35;;
13731;SDS011;6937;56.096;12.664;2022-09-02T14:20:58;1.27;;;0.63;;
13731;SDS011;6937;56.096;12.664;2022-09-02T14:23:25;1.02;;;0.50;;
13731;SDS011;6937;56.096;12.664;2022-09-02T14:25:56;1.17;;;0.70;;
13731;SDS011;6937;56.096;12.664;2022-09-02T14:28:23;1.02;;;0.50;;
13731;SDS011;6937;56.096;12.664;2022-09-02T14:30:55;2.65;;;0.52;;
13731;SDS011;6937;56.096;12.664;2022-09-02T14:33:25;0.82;;;0.45;;
13731;SDS011;6937;56.096;12.664;2022-09-02T14:36:02;1.70;;;0.70;;
13731;SDS011;6937;56.096;12.664;2022-09-02T14:38:28;0.60;;;0.60;;
13731;SDS011;6937;56.096;12.664;2022-09-02T14:40:59;1.25;;;0.60;;
13731;SDS011;6937;56.096;12.664;2022-09-02T14:43:27;1.52;;;0.60;;
13731;SDS011;6937;56.096;12.664;2022-09-02T14:46:03;1.95;;;0.52;;
13731;SDS011;6937;56.096;12.664;2022-09-02T14:48:33;1.65;;;0.60;;
13731;SDS011;6937;56.096;12.664;2022-09-02T14:51:03;1.40;;;0.50;;
13731;SDS011;6937;56.096;12.664;2022-09-02T14:53:30;0.50;;;0.50;;
13731;SDS011;6937;56.096;12.664;2022-09-02T14:55:57;1.55;;;0.60;;
13731;SDS011;6937;56.096;12.664;2022-09-02T14:58:23;1.23;;;0.50;;
13731;SDS011;6937;56.096;12.664;2022-09-02T15:00:51;0.90;;;0.50;;
13731;SDS011;6937;56.096;12.664;2022-09-02T15:03:19;0.40;;;0.40;;
13731;SDS011;6937;56.096;12.664;2022-09-02T15:05:46;0.68;;;0.60;;
13731;SDS011;6937;56.096;12.664;2022-09-02T15:08:11;0.93;;;0.57;;
13731;SDS011;6937;56.096;12.664;2022-09-02T15:10:38;2.70;;;0.50;;
13731;SDS011;6937;56.096;12.664;2022-09-02T15:13:05;0.60;;;0.50;;
13731;SDS011;6937;56.096;12.664;2022-09-02T15:15:32;2.13;;;0.43;;
13731;SDS011;6937;56.096;12.664;2022-09-02T15:17:58;0.65;;;0.50;;
13731;SDS011;6937;56.096;12.664;2022-09-02T15:20:23;0.80;;;0.40;;
13731;SDS011;6937;56.096;12.664;2022-09-02T15:22:49;0.60;;;0.45;;
13731;SDS011;6937;56.096;12.664;2022-09-02T15:25:16;0.65;;;0.55;;
13731;SDS011;6937;56.096;12.664;2022-09-02T15:27:42;0.90;;;0.40;;
13731;SDS011;6937;56.096;12.664;2022-09-02T15:30:07;0.60;;;0.40;;
13731;SDS011;6937;56.096;12.664;2022-09-02T15:32:34;1.38;;;0.40;;
13731;SDS011;6937;56.096;12.664;2022-09-02T15:35:00;0.60;;;0.35;;
13731;SDS011;6937;56.096;12.664;2022-09-02T15:37:25;1.52;;;0.40;;
13731;SDS011;6937;56.096;12.664;2022-09-02T15:39:51;1.60;;;0.40;;
13731;SDS011;6937;56.096;12.664;2022-09-02T15:42:17;0.63;;;0.63;;
13731;SDS011;6937;56.096;12.664;2022-09-02T15:44:42;1.17;;;0.50;;
13731;SDS011;6937;56.096;12.664;2022-09-02T15:47:08;0.63;;;0.40;;
13731;SDS011;6937;56.096;12.664;2022-09-02T15:49:33;1.33;;;0.70;;
13731;SDS011;6937;56.096;12.664;2022-09-02T15:51:59;1.17;;;0.40;;
13731;SDS011;6937;56.096;12.664;2022-09-02T15:54:24;1.73;;;0.40;;
13731;SDS011;6937;56.096;12.664;2022-09-02T15:56:53;1.23;;;0.50;;
13731;SDS011;6937;56.096;12.664;2022-09-02T15:59:20;1.15;;;0.55;;
13731;SDS011;6937;56.096;12.664;2022-09-02T16:01:46;2.55;;;0.68;;
13731;SDS011;6937;56.096;12.664;2022-09-02T16:04:14;1.38;;;0.60;;
13731;SDS011;6937;56.096;12.664;2022-09-02T16:06:41;1.15;;;0.43;;
13731;SDS011;6937;56.096;12.664;2022-09-02T16:09:08;0.65;;;0.52;;
13731;SDS011;6937;56.096;12.664;2022-09-02T16:11:38;0.60;;;0.50;;
13731;SDS011;6937;56.096;12.664;2022-09-02T16:14:05;1.60;;;0.60;;
13731;SDS011;6937;56.096;12.664;2022-09-02T16:16:31;1.40;;;0.75;;
13731;SDS011;6937;56.096;12.664;2022-09-02T16:18:57;2.13;;;0.50;;
13731;SDS011;6937;56.096;12.664;2022-09-02T16:21:22;2.08;;;0.60;;
13731;SDS011;6937;56.096;12.664;2022-09-02T16:23:48;0.73;;;0.40;;
13731;SDS011;6937;56.096;12.664;2022-09-02T16:26:14;0.60;;;0.50;;
13731;SDS011;6937;56.096;12.664;2022-09-02T16:28:48;1.15;;;0.50;;
13731;SDS011;6937;56.096;12.664;2022-09-02T16:31:15;0.65;;;0.40;;
13731;SDS011;6937;56.096;12.664;2022-09-02T16:33:42;1.90;;;0.43;;
13731;SDS011;6937;56.096;12.664;2022-09-02T16:36:21;0.85;;;0.50;;
13731;SDS011;6937;56.096;12.664;2022-09-02T16:38:48;0.60;;;0.47;;
13731;SDS011;6937;56.096;12.664;2022-09-02T16:41:21;1.05;;;0.40;;
13731;SDS011;6937;56.096;12.664;2022-09-02T16:43:49;0.60;;;0.60;;
13731;SDS011;6937;56.096;12.664;2022-09-02T16:46:15;1.40;;;0.43;;
13731;SDS011;6937;56.096;12.664;2022-09-02T16:48:41;1.20;;;0.60;;
13731;SDS011;6937;56.096;12.664;2022-09-02T16:51:06;1.40;;;0.50;;
13731;SDS011;6937;56.096;12.664;2022-09-02T16:53:32;2.92;;;0.60;;
13731;SDS011;6937;56.096;12.664;2022-09-02T16:55:57;1.80;;;0.40;;
13731;SDS011;6937;56.096;12.664;2022-09-02T16:58:23;0.85;;;0.60;;
13731;SDS011;6937;56.096;12.664;2022-09-02T17:00:49;0.75;;;0.47;;
13731;SDS011;6937;56.096;12.664;2022-09-02T17:03:14;0.80;;;0.47;;
13731;SDS011;6937;56.096;12.664;2022-09-02T17:05:39;0.50;;;0.40;;